Johnsburg, New York
Current Conditions -  °F | °C
As of 11:50 PM on Friday 24 Oct 2014 (Local Time) from KGFL Reporting Station
Haze Haze  
Wind Chill: 43°   Ceiling: 9000
Heat Index: 43°   Visibility: 1mi
Dew Point: 43°   Wind: 3mph
Humidity: 100%   Direction: 170°S
Pressure: 29.84"   Gusts: NA
Location:  43.62°N, 73.96°W
Report Text: KGFL 250350Z AUTO 17003KT 1SM BR BKN090 06/06 A2984 RMK AO2
Loading
Personal Weather Stations






























Interactive Weather Map
Tropical Storm Tracking
New forecast layout! Learn more

10-Day Weather Forecast

Advertisements
Track Severe Weather on mobile